createdAt,value
2023-10-10T00:01:22.825Z,11.88
2023-10-10T00:03:50.721Z,7.70
2023-10-10T00:06:19.676Z,8.60
2023-10-10T00:08:51.538Z,6.60
2023-10-10T00:11:20.328Z,7.47
2023-10-10T00:13:53.706Z,8.02
2023-10-10T00:16:26.553Z,7.07
2023-10-10T00:18:57.562Z,6.68
2023-10-10T00:21:24.887Z,8.82
2023-10-10T00:23:54.778Z,7.13
2023-10-10T00:29:07.389Z,7.10
2023-10-10T00:31:34.444Z,7.68
2023-10-10T00:34:01.190Z,6.90
2023-10-10T00:36:37.512Z,8.25
2023-10-10T00:39:14.076Z,6.93
2023-10-10T00:41:50.479Z,6.80
2023-10-10T00:44:18.678Z,7.78
2023-10-10T00:46:48.886Z,6.47
2023-10-10T00:49:18.083Z,7.60
2023-10-10T00:51:48.643Z,7.97
2023-10-10T00:54:23.098Z,8.75
2023-10-10T00:56:58.023Z,7.15
2023-10-10T00:59:43.944Z,7.65
2023-10-10T01:02:15.816Z,7.47
2023-10-10T01:04:55.159Z,7.90
2023-10-10T01:07:23.204Z,9.63
2023-10-10T01:09:57.049Z,8.65
2023-10-10T01:12:25.852Z,8.07
2023-10-10T01:14:57.814Z,9.10
2023-10-10T01:17:31.373Z,8.75
2023-10-10T01:20:26.092Z,7.95
2023-10-10T01:22:58.126Z,8.40
2023-10-10T01:25:34.250Z,8.23
2023-10-10T01:28:21.069Z,8.65
2023-10-10T01:30:54.594Z,9.85
2023-10-10T01:33:38.461Z,8.85
2023-10-10T01:36:22.025Z,7.90
2023-10-10T01:39:08.240Z,11.23
2023-10-10T01:41:40.240Z,9.70
2023-10-10T01:44:14.816Z,10.27
2023-10-10T01:46:42.418Z,10.00
2023-10-10T01:49:15.003Z,10.93
2023-10-10T01:51:44.579Z,12.65
2023-10-10T01:54:20.246Z,11.40
2023-10-10T01:56:48.169Z,9.95
2023-10-10T01:59:18.786Z,12.90
2023-10-10T02:01:46.304Z,11.57
2023-10-10T02:04:13.883Z,11.80
2023-10-10T02:06:41.837Z,12.32
2023-10-10T02:09:21.387Z,11.73
2023-10-10T02:11:51.579Z,14.00
2023-10-10T02:14:20.376Z,13.93
2023-10-10T02:16:50.404Z,12.45
2023-10-10T02:19:25.106Z,12.55
2023-10-10T02:22:04.531Z,12.00
2023-10-10T02:24:31.652Z,12.95
2023-10-10T02:26:58.605Z,13.05
2023-10-10T02:29:25.467Z,12.93
2023-10-10T02:32:14.387Z,16.55
2023-10-10T02:34:57.324Z,22.88
2023-10-10T02:37:25.175Z,19.58
2023-10-10T02:40:08.887Z,18.25
2023-10-10T02:42:35.572Z,19.95
2023-10-10T02:45:03.441Z,17.58
2023-10-10T02:47:34.017Z,18.52
2023-10-10T02:50:11.489Z,19.50
2023-10-10T02:52:40.319Z,20.70
2023-10-10T02:57:42.824Z,23.20
2023-10-10T03:00:29.255Z,24.92
2023-10-10T03:02:59.866Z,28.80
2023-10-10T03:05:47.916Z,47.53
2023-10-10T03:08:16.049Z,76.45
2023-10-10T03:10:46.735Z,59.42
2023-10-10T03:13:28.932Z,65.40
2023-10-10T03:15:57.421Z,61.85
2023-10-10T03:18:31.627Z,65.70
2023-10-10T03:21:28.425Z,76.60
2023-10-10T03:23:57.182Z,61.97
2023-10-10T03:26:53.472Z,75.03
2023-10-10T03:29:50.201Z,60.58
2023-10-10T03:32:26.566Z,68.10
2023-10-10T03:34:58.852Z,72.38
2023-10-10T03:37:31.547Z,72.90
2023-10-10T03:40:10.491Z,56.65
2023-10-10T03:42:55.701Z,53.85
2023-10-10T03:45:41.631Z,60.08
2023-10-10T03:48:27.648Z,56.92
2023-10-10T03:51:13.621Z,60.63
2023-10-10T03:53:59.671Z,57.33
2023-10-10T03:56:45.627Z,54.63
2023-10-10T03:59:31.788Z,59.80
2023-10-10T04:02:17.542Z,68.28
2023-10-10T04:05:16.038Z,70.90
2023-10-10T04:08:09.870Z,65.18
2023-10-10T04:10:55.739Z,66.68
2023-10-10T04:13:41.762Z,71.18
2023-10-10T04:16:28.302Z,74.75
2023-10-10T04:19:14.520Z,68.28
2023-10-10T04:22:00.565Z,78.20
2023-10-10T04:24:46.414Z,64.43
2023-10-10T04:27:32.523Z,68.15
2023-10-10T04:30:18.319Z,56.28
2023-10-10T04:33:04.394Z,58.80
2023-10-10T04:35:50.362Z,58.95
2023-10-10T04:38:36.393Z,55.03
2023-10-10T04:41:22.568Z,59.80
2023-10-10T04:44:08.570Z,58.50
2023-10-10T04:46:54.588Z,53.33
2023-10-10T04:49:40.579Z,50.70
2023-10-10T04:52:26.559Z,57.58
2023-10-10T04:55:12.522Z,59.80
2023-10-10T04:57:58.436Z,55.38
2023-10-10T05:00:44.397Z,56.50
2023-10-10T05:03:30.614Z,53.20
2023-10-10T05:06:20.582Z,57.97
2023-10-10T05:09:07.032Z,52.38
2023-10-10T05:11:52.783Z,64.13
2023-10-10T05:14:39.024Z,58.40
2023-10-10T05:17:25.029Z,52.25
2023-10-10T05:20:11.203Z,38.25
2023-10-10T05:23:11.040Z,45.70
2023-10-10T05:25:38.679Z,48.58
2023-10-10T05:28:05.637Z,45.80
2023-10-10T05:30:43.976Z,55.70
2023-10-10T05:33:11.961Z,58.35
2023-10-10T05:35:41.849Z,50.30
2023-10-10T05:38:09.908Z,50.35
2023-10-10T05:40:39.568Z,54.03
2023-10-10T05:43:17.137Z,53.55
2023-10-10T05:45:45.242Z,51.97
2023-10-10T05:48:15.768Z,60.83
2023-10-10T05:50:42.710Z,53.38
2023-10-10T05:53:09.484Z,48.05
2023-10-10T05:55:39.670Z,43.40
2023-10-10T05:58:07.014Z,64.72
2023-10-10T06:00:42.764Z,58.05
2023-10-10T06:03:09.675Z,64.07
2023-10-10T06:05:36.965Z,53.28
2023-10-10T06:08:07.281Z,59.53
2023-10-10T06:10:34.429Z,50.00
2023-10-10T06:13:08.345Z,44.28
2023-10-10T06:15:36.525Z,48.50
2023-10-10T06:18:19.462Z,50.55
2023-10-10T06:21:06.647Z,51.25
2023-10-10T06:23:36.519Z,51.15
2023-10-10T06:26:05.366Z,43.70
2023-10-10T06:28:46.115Z,43.58
2023-10-10T06:31:20.918Z,43.60
2023-10-10T06:33:51.309Z,37.50
2023-10-10T06:36:22.843Z,42.30
2023-10-10T06:39:00.699Z,43.25
2023-10-10T06:41:29.118Z,45.50
2023-10-10T06:43:58.600Z,46.28
2023-10-10T06:46:25.439Z,56.58
2023-10-10T06:48:52.399Z,53.17
2023-10-10T06:51:23.348Z,52.10
2023-10-10T06:53:55.766Z,55.38
2023-10-10T06:56:43.122Z,58.08
2023-10-10T06:59:17.837Z,59.17
2023-10-10T07:01:46.697Z,62.25
2023-10-10T07:04:17.691Z,65.35
2023-10-10T07:06:52.723Z,56.10
2023-10-10T07:09:29.026Z,60.63
2023-10-10T07:12:20.189Z,56.22
2023-10-10T07:14:48.088Z,51.15
2023-10-10T07:17:15.697Z,53.70
2023-10-10T07:20:16.202Z,53.60
2023-10-10T07:22:44.485Z,53.10
2023-10-10T07:25:19.384Z,54.33
2023-10-10T07:27:46.589Z,55.00
2023-10-10T07:30:13.360Z,59.20
2023-10-10T07:32:43.950Z,52.55
2023-10-10T07:35:16.026Z,59.03
2023-10-10T07:37:44.812Z,58.25
2023-10-10T07:40:15.867Z,53.50
2023-10-10T07:42:42.544Z,57.55
2023-10-10T07:45:16.439Z,59.90
2023-10-10T07:47:59.147Z,51.15
2023-10-10T07:50:36.282Z,54.80
2023-10-10T07:53:05.217Z,54.67
2023-10-10T07:55:52.291Z,56.85
2023-10-10T07:58:21.212Z,56.08
2023-10-10T08:00:47.995Z,56.78
2023-10-10T08:03:20.599Z,58.15
2023-10-10T08:05:52.197Z,52.53
2023-10-10T08:08:19.140Z,53.70
2023-10-10T08:10:47.447Z,51.65
2023-10-10T08:13:15.388Z,55.92
2023-10-10T08:15:51.616Z,52.85
2023-10-10T08:18:37.897Z,53.92
2023-10-10T08:21:04.935Z,50.90
2023-10-10T08:23:32.133Z,51.38
2023-10-10T08:25:59.128Z,52.10
2023-10-10T08:28:25.928Z,57.08
2023-10-10T08:30:54.018Z,58.40
2023-10-10T08:33:21.137Z,54.20
2023-10-10T08:35:50.976Z,50.65
2023-10-10T08:38:21.952Z,50.97
2023-10-10T08:41:02.437Z,48.05
2023-10-10T08:43:30.394Z,52.45
2023-10-10T08:45:58.226Z,52.15
2023-10-10T08:48:27.924Z,56.17
2023-10-10T08:51:04.827Z,52.13
2023-10-10T08:53:39.665Z,45.33
2023-10-10T08:56:08.102Z,47.38
2023-10-10T08:58:37.162Z,50.70
2023-10-10T09:01:09.594Z,47.30
2023-10-10T09:03:37.188Z,52.67
2023-10-10T09:06:20.257Z,48.40
2023-10-10T09:08:51.413Z,42.55
2023-10-10T09:11:21.417Z,49.17
2023-10-10T09:13:53.040Z,52.42
2023-10-10T09:16:42.660Z,45.33
2023-10-10T09:19:09.748Z,47.70
2023-10-10T09:21:52.356Z,44.72
2023-10-10T09:24:30.215Z,41.42
2023-10-10T09:26:57.958Z,41.13
2023-10-10T09:29:35.256Z,38.05
2023-10-10T09:32:02.902Z,38.73
2023-10-10T09:34:42.131Z,43.92
2023-10-10T09:37:12.217Z,47.72
2023-10-10T09:39:41.242Z,36.85
2023-10-10T09:42:10.219Z,43.33
2023-10-10T09:45:02.061Z,39.85
2023-10-10T09:47:44.677Z,32.72
2023-10-10T09:50:24.053Z,41.95
2023-10-10T09:52:54.766Z,36.42
2023-10-10T09:55:26.014Z,36.15
2023-10-10T09:58:03.301Z,36.90
2023-10-10T10:00:38.540Z,31.85
2023-10-10T10:03:29.511Z,33.95
2023-10-10T10:06:07.559Z,37.22
2023-10-10T10:08:45.900Z,35.90
2023-10-10T10:11:29.545Z,31.45
2023-10-10T10:14:17.048Z,32.30
2023-10-10T10:16:52.389Z,33.33
2023-10-10T10:19:21.807Z,32.95
2023-10-10T10:21:58.199Z,28.85
2023-10-10T10:24:32.256Z,32.03
2023-10-10T10:27:40.595Z,36.53
2023-10-10T10:30:20.675Z,30.42
2023-10-10T10:32:49.118Z,33.15
2023-10-10T10:37:56.899Z,30.55
2023-10-10T10:40:43.763Z,29.23
2023-10-10T10:43:16.422Z,28.20
2023-10-10T10:45:52.457Z,30.83
2023-10-10T10:48:35.432Z,27.77
2023-10-10T10:51:27.994Z,27.67
2023-10-10T10:54:03.419Z,26.58
2023-10-10T10:56:31.671Z,25.75
2023-10-10T10:59:15.075Z,25.92
2023-10-10T11:01:54.051Z,26.17
2023-10-10T11:04:34.581Z,24.77
2023-10-10T11:07:08.665Z,26.38
2023-10-10T11:09:38.381Z,25.90
2023-10-10T11:12:09.901Z,22.73
2023-10-10T11:14:47.861Z,23.58
2023-10-10T11:17:19.224Z,20.88
2023-10-10T11:19:48.134Z,21.35
2023-10-10T11:25:06.501Z,20.73
2023-10-10T11:30:09.548Z,20.67
2023-10-10T11:32:47.674Z,24.67
2023-10-10T11:35:24.569Z,16.75
2023-10-10T11:38:00.663Z,22.23
2023-10-10T11:40:31.470Z,18.95
2023-10-10T11:42:59.634Z,15.50
2023-10-10T11:45:27.639Z,19.48
2023-10-10T11:47:59.320Z,19.00
2023-10-10T11:50:30.498Z,18.00
2023-10-10T11:52:57.845Z,19.40
2023-10-10T11:55:25.304Z,21.27
2023-10-10T11:57:58.762Z,19.42
2023-10-10T12:00:45.040Z,19.70
2023-10-10T12:03:13.062Z,17.88
2023-10-10T12:05:52.885Z,17.55
2023-10-10T12:08:24.332Z,19.48
2023-10-10T12:11:05.651Z,19.10
2023-10-10T12:13:33.426Z,22.98
2023-10-10T12:16:01.673Z,19.23
2023-10-10T12:18:32.945Z,20.02
2023-10-10T12:21:02.298Z,20.23
2023-10-10T12:23:31.366Z,16.67
2023-10-10T12:26:00.426Z,18.95
2023-10-10T12:28:27.910Z,19.85
2023-10-10T12:30:57.953Z,17.83
2023-10-10T12:33:25.763Z,20.48
2023-10-10T12:35:56.082Z,20.38
2023-10-10T12:38:25.867Z,18.73
2023-10-10T12:40:53.947Z,18.95
2023-10-10T12:43:22.101Z,18.42
2023-10-10T12:45:52.254Z,21.02
2023-10-10T12:48:23.455Z,17.08
2023-10-10T12:50:51.655Z,20.27
2023-10-10T12:53:22.710Z,21.50
2023-10-10T12:55:50.678Z,24.90
2023-10-10T12:58:21.178Z,19.08
2023-10-10T13:00:52.316Z,20.60
2023-10-10T13:03:20.011Z,16.13
2023-10-10T13:05:53.479Z,18.55
2023-10-10T13:08:24.115Z,13.70
2023-10-10T13:11:01.893Z,16.95
2023-10-10T13:13:32.655Z,13.88
2023-10-10T13:16:23.444Z,18.13
2023-10-10T13:18:54.395Z,14.55
2023-10-10T13:21:21.622Z,15.50
2023-10-10T13:23:49.764Z,21.75
2023-10-10T13:26:24.449Z,17.35
2023-10-10T13:28:51.648Z,18.90
2023-10-10T13:31:19.639Z,16.17
2023-10-10T13:33:47.241Z,15.82
2023-10-10T13:36:18.062Z,16.75
2023-10-10T13:38:49.988Z,19.80
2023-10-10T13:41:19.858Z,14.80
2023-10-10T13:43:50.623Z,18.38
2023-10-10T13:46:19.431Z,14.23
2023-10-10T13:48:47.483Z,16.25
2023-10-10T13:51:17.629Z,16.70
2023-10-10T13:53:46.164Z,15.75
2023-10-10T13:56:17.833Z,15.50
2023-10-10T13:58:48.709Z,12.77
2023-10-10T14:01:16.675Z,16.98
2023-10-10T14:03:47.045Z,13.65
2023-10-10T14:06:15.594Z,18.23
2023-10-10T14:11:14.415Z,15.15
2023-10-10T14:13:41.532Z,13.20
2023-10-10T14:16:08.851Z,12.23
2023-10-10T14:18:48.422Z,13.35
2023-10-10T14:21:17.654Z,15.52
2023-10-10T14:23:46.784Z,16.73
2023-10-10T14:26:14.668Z,15.88
2023-10-10T14:28:42.723Z,19.55
2023-10-10T14:31:13.746Z,16.85
2023-10-10T14:33:41.785Z,16.98
2023-10-10T14:36:12.688Z,15.60
2023-10-10T14:38:46.218Z,13.30
2023-10-10T14:41:17.432Z,15.00
2023-10-10T14:44:01.555Z,14.65
2023-10-10T14:46:33.042Z,13.82
2023-10-10T14:49:07.610Z,17.30
2023-10-10T14:51:37.323Z,16.55
2023-10-10T14:54:08.142Z,13.90
2023-10-10T14:56:37.050Z,13.68
2023-10-10T14:59:05.832Z,12.23
2023-10-10T15:01:35.598Z,14.10
2023-10-10T15:04:04.113Z,12.05
2023-10-10T15:06:31.394Z,9.57
2023-10-10T15:08:59.364Z,11.18
2023-10-10T15:11:30.053Z,11.10
2023-10-10T15:13:57.706Z,10.63
2023-10-10T15:16:26.880Z,9.52
2023-10-10T15:18:54.329Z,10.93
2023-10-10T15:21:21.918Z,9.57
2023-10-10T15:23:49.242Z,12.90
2023-10-10T15:26:20.721Z,15.50
2023-10-10T15:28:48.389Z,12.73
2023-10-10T15:31:16.953Z,11.15
2023-10-10T15:33:48.358Z,16.77
2023-10-10T15:36:17.780Z,14.07
2023-10-10T15:38:45.077Z,12.32
2023-10-10T15:41:20.885Z,13.70
2023-10-10T15:43:48.459Z,12.00
2023-10-10T15:46:16.342Z,10.32
2023-10-10T15:48:44.290Z,11.38
2023-10-10T15:51:15.886Z,12.77
2023-10-10T15:53:46.839Z,8.93
2023-10-10T15:56:18.460Z,11.48
2023-10-10T15:58:51.043Z,7.70
2023-10-10T16:01:28.999Z,8.00
2023-10-10T16:03:56.478Z,8.43
2023-10-10T16:06:24.154Z,13.37
2023-10-10T16:08:52.465Z,9.35
2023-10-10T16:11:23.306Z,10.55
2023-10-10T16:13:50.593Z,8.13
2023-10-10T16:16:19.465Z,8.50
2023-10-10T16:18:49.853Z,6.78
2023-10-10T16:21:17.069Z,7.15
2023-10-10T16:23:46.155Z,7.40
2023-10-10T16:26:15.853Z,13.48
2023-10-10T16:28:43.412Z,10.20
2023-10-10T16:31:12.180Z,11.87
2023-10-10T16:33:40.109Z,11.15
2023-10-10T16:36:07.706Z,8.43
2023-10-10T16:38:36.844Z,8.23
2023-10-10T16:41:09.712Z,8.90
2023-10-10T16:43:53.992Z,12.10
2023-10-10T16:46:26.705Z,9.68
2023-10-10T16:48:53.778Z,9.05
2023-10-10T16:51:22.013Z,8.18
2023-10-10T16:53:54.129Z,12.98
2023-10-10T16:56:24.313Z,10.40
2023-10-10T16:58:51.671Z,7.60
2023-10-10T17:01:21.947Z,7.68
2023-10-10T17:03:51.323Z,7.97
2023-10-10T17:06:23.513Z,11.60
2023-10-10T17:08:54.216Z,7.72
2023-10-10T17:11:24.433Z,8.73
2023-10-10T17:13:54.008Z,9.05
2023-10-10T17:16:29.444Z,6.93
2023-10-10T17:19:06.573Z,10.43
2023-10-10T17:21:43.783Z,9.23
2023-10-10T17:24:10.764Z,9.43
2023-10-10T17:26:38.121Z,8.07
2023-10-10T17:29:05.288Z,7.87
2023-10-10T17:31:32.480Z,10.57
2023-10-10T17:34:02.639Z,12.40
2023-10-10T17:36:30.052Z,7.30
2023-10-10T17:38:57.368Z,11.07
2023-10-10T17:41:25.067Z,8.98
2023-10-10T17:43:52.013Z,10.52
2023-10-10T17:46:23.038Z,13.20
2023-10-10T17:48:56.628Z,12.35
2023-10-10T17:51:25.004Z,10.63
2023-10-10T17:53:53.158Z,14.52
2023-10-10T17:56:24.358Z,12.60
2023-10-10T17:58:51.852Z,10.20
2023-10-10T18:01:22.490Z,12.45
2023-10-10T18:03:57.396Z,7.95
2023-10-10T18:06:25.554Z,7.88
2023-10-10T18:08:56.935Z,12.38
2023-10-10T18:11:27.269Z,8.68
2023-10-10T18:13:54.482Z,11.48
2023-10-10T18:16:24.264Z,11.25
2023-10-10T18:18:53.554Z,8.55
2023-10-10T18:21:21.391Z,10.50
2023-10-10T18:23:48.530Z,9.43
2023-10-10T18:26:17.465Z,9.02
2023-10-10T18:28:44.903Z,11.13
2023-10-10T18:31:15.411Z,9.93
2023-10-10T18:33:43.456Z,10.88
2023-10-10T18:36:11.524Z,12.18
2023-10-10T18:38:41.166Z,9.43
2023-10-10T18:41:09.093Z,6.43
2023-10-10T18:43:36.159Z,6.30
2023-10-10T18:46:06.270Z,6.35
2023-10-10T18:48:38.230Z,7.28
2023-10-10T18:51:10.857Z,8.90
2023-10-10T18:53:37.689Z,11.80
2023-10-10T18:56:06.738Z,9.77
2023-10-10T18:58:33.619Z,8.65
2023-10-10T19:01:02.309Z,10.57
2023-10-10T19:03:29.346Z,6.78
2023-10-10T19:05:57.340Z,12.48
2023-10-10T19:08:24.151Z,7.22
2023-10-10T19:10:52.575Z,8.50
2023-10-10T19:15:49.887Z,9.10
2023-10-10T19:18:19.968Z,7.70
2023-10-10T19:20:47.689Z,10.80
2023-10-10T19:23:15.896Z,16.02
2023-10-10T19:28:16.876Z,8.70
2023-10-10T19:30:43.882Z,12.25
2023-10-10T19:33:12.281Z,7.13
2023-10-10T19:38:12.506Z,7.72
2023-10-10T19:40:44.155Z,10.35
2023-10-10T19:43:14.033Z,7.93
2023-10-10T19:45:41.335Z,7.68
2023-10-10T19:48:08.674Z,8.98
2023-10-10T19:50:43.911Z,9.63
2023-10-10T19:53:12.308Z,7.32
2023-10-10T19:55:45.784Z,8.13
2023-10-10T19:58:13.737Z,5.68
2023-10-10T20:00:44.158Z,7.38
2023-10-10T20:03:15.097Z,8.65
2023-10-10T20:05:42.866Z,6.45
2023-10-10T20:08:14.340Z,6.60
2023-10-10T20:10:41.934Z,12.60
2023-10-10T20:13:09.150Z,7.33
2023-10-10T20:15:43.525Z,8.70
2023-10-10T20:18:12.162Z,6.78
2023-10-10T20:20:41.188Z,10.88
2023-10-10T20:23:10.347Z,6.45
2023-10-10T20:25:40.970Z,7.57
2023-10-10T20:28:08.900Z,7.10
2023-10-10T20:30:36.255Z,8.05
2023-10-10T20:33:05.583Z,6.45
2023-10-10T20:35:33.660Z,8.15
2023-10-10T20:38:02.343Z,8.13
2023-10-10T20:40:32.772Z,7.03
2023-10-10T20:43:06.903Z,9.32
2023-10-10T20:45:37.354Z,9.20
2023-10-10T20:48:09.697Z,6.93
2023-10-10T20:50:42.525Z,6.60
2023-10-10T20:53:09.925Z,17.52
2023-10-10T20:55:37.145Z,6.25
2023-10-10T20:58:05.074Z,9.07
2023-10-10T21:00:31.955Z,8.85
2023-10-10T21:03:07.212Z,7.93
2023-10-10T21:05:35.621Z,7.07
2023-10-10T21:08:05.003Z,6.50
2023-10-10T21:10:31.815Z,9.00
2023-10-10T21:12:59.053Z,5.60
2023-10-10T21:15:26.060Z,8.27
2023-10-10T21:17:54.706Z,5.70
2023-10-10T21:20:28.576Z,8.27
2023-10-10T21:22:58.530Z,7.72
2023-10-10T21:25:26.157Z,5.57
2023-10-10T21:27:56.396Z,6.10
2023-10-10T21:30:25.285Z,7.60
2023-10-10T21:32:52.391Z,13.45
2023-10-10T21:35:23.115Z,7.30
2023-10-10T21:37:50.160Z,6.07
2023-10-10T21:40:21.412Z,6.15
2023-10-10T21:42:50.063Z,8.02
2023-10-10T21:45:18.154Z,8.65
2023-10-10T21:47:52.163Z,15.27
2023-10-10T21:50:19.979Z,11.10
2023-10-10T21:52:48.535Z,9.57
2023-10-10T21:55:18.005Z,6.80
2023-10-10T21:57:56.661Z,6.53
2023-10-10T22:00:31.181Z,9.05
2023-10-10T22:03:01.967Z,8.82
2023-10-10T22:05:31.600Z,9.07
2023-10-10T22:07:59.088Z,9.18
2023-10-10T22:10:26.027Z,13.70
2023-10-10T22:12:59.066Z,9.88
2023-10-10T22:15:25.886Z,8.50
2023-10-10T22:17:57.288Z,11.65
2023-10-10T22:20:25.823Z,11.73
2023-10-10T22:22:54.852Z,12.20
2023-10-10T22:25:24.587Z,11.70
2023-10-10T22:27:53.100Z,9.90
2023-10-10T22:30:25.857Z,12.80
2023-10-10T22:32:54.637Z,14.27
2023-10-10T22:35:22.836Z,16.23
2023-10-10T22:37:51.641Z,13.73
2023-10-10T22:40:18.734Z,12.50
2023-10-10T22:42:45.571Z,13.02
2023-10-10T22:45:19.099Z,16.83
2023-10-10T22:47:55.069Z,14.23
2023-10-10T22:50:22.503Z,17.40
2023-10-10T22:52:53.766Z,17.70
2023-10-10T22:55:21.839Z,21.77
2023-10-10T22:57:51.891Z,17.42
2023-10-10T23:00:30.086Z,17.55
2023-10-10T23:02:59.564Z,13.88
2023-10-10T23:05:28.571Z,12.02
2023-10-10T23:07:56.536Z,14.02
2023-10-10T23:10:23.490Z,16.50
2023-10-10T23:12:51.484Z,14.30
2023-10-10T23:15:27.350Z,15.20
2023-10-10T23:17:59.651Z,14.90
2023-10-10T23:20:27.910Z,18.85
2023-10-10T23:22:55.765Z,14.77
2023-10-10T23:25:23.002Z,15.65
2023-10-10T23:27:52.004Z,12.90
2023-10-10T23:30:20.190Z,12.02
2023-10-10T23:32:47.584Z,12.70
2023-10-10T23:35:14.624Z,13.75
2023-10-10T23:37:46.047Z,16.70
2023-10-10T23:40:16.923Z,17.98
2023-10-10T23:42:45.103Z,16.10
2023-10-10T23:45:23.399Z,14.32
2023-10-10T23:47:56.225Z,14.57
2023-10-10T23:50:24.827Z,15.57
2023-10-10T23:52:53.173Z,22.33
2023-10-10T23:55:21.315Z,17.45
2023-10-10T23:57:49.520Z,12.90
